createdAt,value
2018-04-13T00:00:04.009Z,997.05
2018-04-13T00:01:04.011Z,997.06
2018-04-13T00:02:04.021Z,997.11
2018-04-13T00:03:04.027Z,997.06
2018-04-13T00:04:04.027Z,997.06
2018-04-13T00:05:04.036Z,997.09
2018-04-13T00:06:04.027Z,997.11
2018-04-13T00:07:04.600Z,997.07
2018-04-13T00:08:04.032Z,997.10
2018-04-13T00:09:04.044Z,997.14
2018-04-13T00:10:04.038Z,997.14
2018-04-13T00:11:04.052Z,997.12
2018-04-13T00:12:04.050Z,997.12
2018-04-13T00:13:04.057Z,997.13
2018-04-13T00:14:04.057Z,997.14
2018-04-13T00:15:04.066Z,997.18
2018-04-13T00:16:04.061Z,997.17
2018-04-13T00:17:04.072Z,997.16
2018-04-13T00:18:04.075Z,997.19
2018-04-13T00:19:04.075Z,997.23
2018-04-13T00:20:04.080Z,997.24
2018-04-13T00:21:04.088Z,997.25
2018-04-13T00:22:04.091Z,997.26
2018-04-13T00:23:04.090Z,997.28
2018-04-13T00:24:04.097Z,997.31
2018-04-13T00:25:04.104Z,997.31
2018-04-13T00:26:04.121Z,997.34
2018-04-13T00:27:04.106Z,997.32
2018-04-13T00:28:04.106Z,997.33
2018-04-13T00:29:04.126Z,997.31
2018-04-13T00:30:04.134Z,997.25
2018-04-13T00:31:04.122Z,997.25
2018-04-13T00:32:04.131Z,997.21
2018-04-13T00:33:04.140Z,997.20
2018-04-13T00:34:04.137Z,997.17
2018-04-13T00:35:04.148Z,997.18
2018-04-13T00:36:04.142Z,997.15
2018-04-13T00:37:04.154Z,997.14
2018-04-13T00:38:04.170Z,997.18
2018-04-13T00:39:04.149Z,997.14
2018-04-13T00:40:04.157Z,997.12
2018-04-13T00:41:04.157Z,997.15
2018-04-13T00:42:04.159Z,997.15
2018-04-13T00:43:04.172Z,997.16
2018-04-13T00:44:04.194Z,997.16
2018-04-13T00:45:04.198Z,997.13
2018-04-13T00:46:04.182Z,997.13
2018-04-13T00:47:04.177Z,997.13
2018-04-13T00:48:04.179Z,997.12
2018-04-13T00:49:04.191Z,997.13
2018-04-13T00:50:04.205Z,997.18
2018-04-13T00:51:04.192Z,997.18
2018-04-13T00:52:04.201Z,997.19
2018-04-13T00:53:04.197Z,997.18
2018-04-13T00:54:04.209Z,997.20
2018-04-13T00:55:04.210Z,997.24
2018-04-13T00:56:04.214Z,997.25
2018-04-13T00:57:04.219Z,997.26
2018-04-13T00:58:04.223Z,997.27
2018-04-13T00:59:04.229Z,997.27
2018-04-13T01:00:04.229Z,997.25
2018-04-13T01:01:04.237Z,997.26
2018-04-13T01:02:04.235Z,997.27
2018-04-13T01:03:04.236Z,997.25
2018-04-13T01:04:04.249Z,997.27
2018-04-13T01:05:04.253Z,997.29
2018-04-13T01:06:04.248Z,997.27
2018-04-13T01:07:04.257Z,997.32
2018-04-13T01:08:04.252Z,997.25
2018-04-13T01:09:04.264Z,997.28
2018-04-13T01:10:04.259Z,997.25
2018-04-13T01:11:04.304Z,997.25
2018-04-13T01:12:04.265Z,997.25
2018-04-13T01:13:04.277Z,997.28
2018-04-13T01:14:04.277Z,997.27
2018-04-13T01:15:04.280Z,997.27
2018-04-13T01:16:04.283Z,997.28
2018-04-13T01:17:04.288Z,997.28
2018-04-13T01:18:04.293Z,997.25
2018-04-13T01:19:04.295Z,997.28
2018-04-13T01:20:04.297Z,997.31
2018-04-13T01:21:04.307Z,997.28
2018-04-13T01:22:04.309Z,997.26
2018-04-13T01:23:04.312Z,997.25
2018-04-13T01:24:04.315Z,997.28
2018-04-13T01:25:04.314Z,997.25
2018-04-13T01:26:04.323Z,997.25
2018-04-13T01:27:04.323Z,997.23
2018-04-13T01:28:04.323Z,997.24
2018-04-13T01:29:04.331Z,997.22
2018-04-13T01:30:04.338Z,997.19
2018-04-13T01:31:04.331Z,997.19
2018-04-13T01:32:04.337Z,997.14
2018-04-13T01:33:04.349Z,997.20
2018-04-13T01:34:04.351Z,997.21
2018-04-13T01:35:04.357Z,997.22
2018-04-13T01:36:04.359Z,997.25
2018-04-13T01:37:04.357Z,997.26
2018-04-13T01:38:04.369Z,997.26
2018-04-13T01:39:04.369Z,997.30
2018-04-13T01:40:04.362Z,997.28
2018-04-13T01:41:04.376Z,997.34
2018-04-13T01:42:04.371Z,997.31
2018-04-13T01:43:04.385Z,997.32
2018-04-13T01:44:04.384Z,997.31
2018-04-13T01:45:04.385Z,997.30
2018-04-13T01:46:04.385Z,997.34
2018-04-13T01:47:04.397Z,997.32
2018-04-13T01:48:04.392Z,997.35
2018-04-13T01:49:04.406Z,997.34
2018-04-13T01:50:04.407Z,997.34
2018-04-13T01:51:04.408Z,997.33
2018-04-13T01:52:04.411Z,997.34
2018-04-13T01:53:04.437Z,997.36
2018-04-13T01:54:04.425Z,997.35
2018-04-13T01:55:04.426Z,997.37
2018-04-13T01:56:04.422Z,997.43
2018-04-13T01:57:04.429Z,997.43
2018-04-13T01:58:04.431Z,997.43
2018-04-13T01:59:04.442Z,997.41
2018-04-13T02:00:04.435Z,997.44
2018-04-13T02:01:04.444Z,997.45
2018-04-13T02:02:04.443Z,997.43
2018-04-13T02:03:04.448Z,997.40
2018-04-13T02:04:04.454Z,997.44
2018-04-13T02:05:04.456Z,997.45
2018-04-13T02:06:04.471Z,997.46
2018-04-13T02:07:04.462Z,997.46
2018-04-13T02:08:04.467Z,997.46
2018-04-13T02:09:04.467Z,997.48
2018-04-13T02:10:04.472Z,997.44
2018-04-13T02:11:04.482Z,997.42
2018-04-13T02:12:04.491Z,997.42
2018-04-13T02:13:04.478Z,997.44
2018-04-13T02:14:04.489Z,997.45
2018-04-13T02:15:04.491Z,997.47
2018-04-13T02:16:04.494Z,997.52
2018-04-13T02:17:04.497Z,997.48
2018-04-13T02:18:04.507Z,997.48
2018-04-13T02:19:04.497Z,997.51
2018-04-13T02:20:04.502Z,997.51
2018-04-13T02:21:04.556Z,997.51
2018-04-13T02:22:04.514Z,997.51
2018-04-13T02:23:04.514Z,997.54
2018-04-13T02:24:04.526Z,997.54
2018-04-13T02:25:04.520Z,997.57
2018-04-13T02:26:04.524Z,997.55
2018-04-13T02:27:04.528Z,997.57
2018-04-13T02:28:04.533Z,997.58
2018-04-13T02:29:04.539Z,997.60
2018-04-13T02:30:04.543Z,997.62
2018-04-13T02:31:04.548Z,997.58
2018-04-13T02:32:04.545Z,997.61
2018-04-13T02:33:04.554Z,997.60
2018-04-13T02:34:04.549Z,997.59
2018-04-13T02:35:04.564Z,997.60
2018-04-13T02:36:04.571Z,997.58
2018-04-13T02:37:04.622Z,997.57
2018-04-13T02:38:04.563Z,997.57
2018-04-13T02:39:04.575Z,997.55
2018-04-13T02:40:04.569Z,997.52
2018-04-13T02:41:04.578Z,997.56
2018-04-13T02:42:04.573Z,997.59
2018-04-13T02:43:04.578Z,997.59
2018-04-13T02:44:04.581Z,997.61
2018-04-13T02:45:04.589Z,997.58
2018-04-13T02:46:04.590Z,997.58
2018-04-13T02:47:04.593Z,997.62
2018-04-13T02:48:04.597Z,997.59
2018-04-13T02:49:04.606Z,997.58
2018-04-13T02:50:04.607Z,997.60
2018-04-13T02:51:04.606Z,997.63
2018-04-13T02:52:04.602Z,997.62
2018-04-13T02:53:04.619Z,997.62
2018-04-13T02:54:04.615Z,997.65
2018-04-13T02:55:04.617Z,997.67
2018-04-13T02:56:04.624Z,997.68
2018-04-13T02:57:04.621Z,997.70
2018-04-13T02:58:04.626Z,997.71
2018-04-13T02:59:04.625Z,997.70
2018-04-13T03:00:04.633Z,997.72
2018-04-13T03:01:04.641Z,997.77
2018-04-13T03:02:04.651Z,997.77
2018-04-13T03:03:04.646Z,997.83
2018-04-13T03:04:04.638Z,997.83
2018-04-13T03:05:04.651Z,997.83
2018-04-13T03:06:04.651Z,997.86
2018-04-13T03:07:04.650Z,997.86
2018-04-13T03:08:04.666Z,997.87
2018-04-13T03:09:04.659Z,997.89
2018-04-13T03:10:04.666Z,997.91
2018-04-13T03:11:04.661Z,997.92
2018-04-13T03:12:04.683Z,997.93
2018-04-13T03:13:04.761Z,997.90
2018-04-13T03:14:04.689Z,997.92
2018-04-13T03:15:04.688Z,997.96
2018-04-13T03:16:04.679Z,997.91
2018-04-13T03:17:04.680Z,997.94
2018-04-13T03:18:04.694Z,997.96
2018-04-13T03:19:04.689Z,997.97
2018-04-13T03:20:04.693Z,997.96
2018-04-13T03:21:04.697Z,998.00
2018-04-13T03:22:04.704Z,998.02
2018-04-13T03:23:04.703Z,998.01
2018-04-13T03:24:04.702Z,998.04
2018-04-13T03:25:04.723Z,998.02
2018-04-13T03:26:04.714Z,998.03
2018-04-13T03:27:04.714Z,998.04
2018-04-13T03:28:04.719Z,998.08
2018-04-13T03:29:04.721Z,998.05
2018-04-13T03:30:04.725Z,998.12
2018-04-13T03:31:04.720Z,998.11
2018-04-13T03:32:04.726Z,998.10
2018-04-13T03:33:04.734Z,998.20
2018-04-13T03:34:04.730Z,998.17
2018-04-13T03:35:04.741Z,998.15
2018-04-13T03:36:04.740Z,998.20
2018-04-13T03:37:04.747Z,998.15
2018-04-13T03:38:04.741Z,998.16
2018-04-13T03:39:04.751Z,998.15
2018-04-13T03:40:04.750Z,998.13
2018-04-13T03:41:04.755Z,998.18
2018-04-13T03:42:04.760Z,998.19
2018-04-13T03:43:04.761Z,998.16
2018-04-13T03:44:04.766Z,998.15
2018-04-13T03:45:04.773Z,998.14
2018-04-13T03:46:04.774Z,998.17
2018-04-13T03:47:04.785Z,998.15
2018-04-13T03:48:04.775Z,998.16
2018-04-13T03:49:04.779Z,998.16
2018-04-13T03:50:04.787Z,998.14
2018-04-13T03:51:04.788Z,998.13
2018-04-13T03:52:04.799Z,998.13
2018-04-13T03:53:04.796Z,998.11
2018-04-13T03:54:04.818Z,998.12
2018-04-13T03:55:04.791Z,998.15
2018-04-13T03:56:04.796Z,998.15
2018-04-13T03:57:04.807Z,998.19
2018-04-13T03:58:04.810Z,998.21
2018-04-13T03:59:04.805Z,998.23
2018-04-13T04:00:04.809Z,998.24
2018-04-13T04:01:04.814Z,998.25
2018-04-13T04:02:04.868Z,998.26
2018-04-13T04:03:04.820Z,998.30
2018-04-13T04:04:04.819Z,998.33
2018-04-13T04:05:04.824Z,998.30
2018-04-13T04:06:04.828Z,998.30
2018-04-13T04:07:04.834Z,998.33
2018-04-13T04:08:04.830Z,998.32
2018-04-13T04:09:04.848Z,998.33
2018-04-13T04:10:04.842Z,998.34
2018-04-13T04:11:04.865Z,998.36
2018-04-13T04:12:04.846Z,998.38
2018-04-13T04:13:04.852Z,998.39
2018-04-13T04:14:04.867Z,998.42
2018-04-13T04:15:04.866Z,998.44
2018-04-13T04:16:04.866Z,998.45
2018-04-13T04:17:04.874Z,998.46
2018-04-13T04:18:04.883Z,998.45
2018-04-13T04:19:04.882Z,998.46
2018-04-13T04:20:04.868Z,998.47
2018-04-13T04:21:04.873Z,998.47
2018-04-13T04:22:04.875Z,998.46
2018-04-13T04:23:04.889Z,998.49
2018-04-13T04:24:04.897Z,998.46
2018-04-13T04:25:04.882Z,998.49
2018-04-13T04:26:04.887Z,998.49
2018-04-13T04:27:04.892Z,998.46
2018-04-13T04:28:04.889Z,998.48
2018-04-13T04:29:04.900Z,998.47
2018-04-13T04:30:04.905Z,998.48
2018-04-13T04:31:04.901Z,998.47
2018-04-13T04:32:04.910Z,998.46
2018-04-13T04:33:04.908Z,998.48
2018-04-13T04:34:04.916Z,998.47
2018-04-13T04:35:04.919Z,998.47
2018-04-13T04:36:04.913Z,998.45
2018-04-13T04:37:04.927Z,998.44
2018-04-13T04:38:04.932Z,998.41
2018-04-13T04:39:04.942Z,998.38
2018-04-13T04:40:04.928Z,998.39
2018-04-13T04:41:04.941Z,998.35
2018-04-13T04:42:04.938Z,998.34
2018-04-13T04:43:04.948Z,998.37
2018-04-13T04:44:04.953Z,998.38
2018-04-13T04:45:04.950Z,998.39
2018-04-13T04:46:04.952Z,998.43
2018-04-13T04:47:04.951Z,998.46
2018-04-13T04:48:04.959Z,998.45
2018-04-13T04:49:04.968Z,998.47
2018-04-13T04:50:04.956Z,998.46
2018-04-13T04:51:04.966Z,998.50
2018-04-13T04:52:04.965Z,998.50
2018-04-13T04:53:04.972Z,998.52
2018-04-13T04:54:04.971Z,998.53
2018-04-13T04:55:04.978Z,998.49
2018-04-13T04:56:04.978Z,998.55
2018-04-13T04:57:04.989Z,998.59
2018-04-13T04:58:04.984Z,998.56
2018-04-13T04:59:04.991Z,998.55
2018-04-13T05:00:04.989Z,998.55
2018-04-13T05:01:05.003Z,998.55
2018-04-13T05:02:04.993Z,998.56
2018-04-13T05:03:05.007Z,998.54
2018-04-13T05:04:05.017Z,998.57
2018-04-13T05:05:05.015Z,998.58
2018-04-13T05:06:05.019Z,998.63
2018-04-13T05:07:05.015Z,998.68
2018-04-13T05:08:05.022Z,998.65
2018-04-13T05:09:05.025Z,998.70
2018-04-13T05:10:05.027Z,998.70
2018-04-13T05:11:05.038Z,998.72
2018-04-13T05:12:05.028Z,998.74
2018-04-13T05:13:05.044Z,998.73
2018-04-13T05:14:05.067Z,998.71
2018-04-13T05:15:07.044Z,998.72
2018-04-13T05:16:05.713Z,998.74
2018-04-13T05:17:07.693Z,998.77
2018-04-13T05:18:07.274Z,998.80
2018-04-13T05:19:05.046Z,998.83
2018-04-13T05:20:05.054Z,998.88
2018-04-13T05:21:05.056Z,998.89
2018-04-13T05:22:05.059Z,998.89
2018-04-13T05:23:05.067Z,998.88
2018-04-13T05:24:05.063Z,998.91
2018-04-13T05:25:05.076Z,998.92
2018-04-13T05:26:05.076Z,998.93
2018-04-13T05:27:05.077Z,998.90
2018-04-13T05:28:05.082Z,998.90
2018-04-13T05:29:05.078Z,998.89
2018-04-13T05:30:05.109Z,998.90
2018-04-13T05:31:05.091Z,998.91
2018-04-13T05:32:05.088Z,998.84
2018-04-13T05:33:05.101Z,998.87
2018-04-13T05:34:05.102Z,998.85
2018-04-13T05:35:05.136Z,998.82
2018-04-13T05:36:05.109Z,998.85
2018-04-13T05:37:05.123Z,998.84
2018-04-13T05:38:05.107Z,998.85
2018-04-13T05:39:05.112Z,998.86
2018-04-13T05:40:05.165Z,998.91
2018-04-13T05:41:05.118Z,998.92
2018-04-13T05:42:05.133Z,998.94
2018-04-13T05:43:05.167Z,998.98
2018-04-13T05:44:05.124Z,998.99
2018-04-13T05:45:05.137Z,999.01
2018-04-13T05:46:05.191Z,999.04
2018-04-13T05:47:05.144Z,999.09
2018-04-13T05:48:05.146Z,999.10
2018-04-13T05:49:05.143Z,999.16
2018-04-13T05:50:05.153Z,999.18
2018-04-13T05:51:05.149Z,999.21
2018-04-13T05:52:05.156Z,999.24
2018-04-13T05:53:05.166Z,999.20
2018-04-13T05:54:05.162Z,999.19
2018-04-13T05:55:05.180Z,999.20
2018-04-13T05:56:05.171Z,999.14
2018-04-13T05:57:05.174Z,999.11
2018-04-13T05:58:05.176Z,999.11
2018-04-13T05:59:05.181Z,999.09
2018-04-13T06:00:05.182Z,999.08
2018-04-13T06:01:05.192Z,999.07
2018-04-13T06:02:05.193Z,999.04
2018-04-13T06:03:05.202Z,999.03
2018-04-13T06:04:05.192Z,999.00
2018-04-13T06:05:05.210Z,999.03
2018-04-13T06:06:05.245Z,999.02
2018-04-13T06:07:05.211Z,999.01
2018-04-13T06:08:05.210Z,998.99
2018-04-13T06:09:05.220Z,999.02
2018-04-13T06:10:05.223Z,999.04
2018-04-13T06:11:05.217Z,999.02
2018-04-13T06:12:05.223Z,999.01
2018-04-13T06:13:05.236Z,999.03
2018-04-13T06:14:05.237Z,999.02
2018-04-13T06:15:05.234Z,999.04
2018-04-13T06:16:05.239Z,998.97
2018-04-13T06:17:05.249Z,998.95
2018-04-13T06:18:05.250Z,998.98
2018-04-13T06:19:05.250Z,998.99
2018-04-13T06:20:05.255Z,999.02
2018-04-13T06:21:05.262Z,999.03
2018-04-13T06:22:05.272Z,999.03
2018-04-13T06:23:05.274Z,999.09
2018-04-13T06:24:05.275Z,999.10
2018-04-13T06:25:05.281Z,999.14
2018-04-13T06:26:05.291Z,999.20
2018-04-13T06:27:05.281Z,999.26
2018-04-13T06:28:05.287Z,999.29
2018-04-13T06:29:05.315Z,999.37
2018-04-13T06:30:05.299Z,999.38
2018-04-13T06:31:05.300Z,999.42
2018-04-13T06:32:05.304Z,999.48
2018-04-13T06:33:05.309Z,999.44
2018-04-13T06:34:05.316Z,999.45
2018-04-13T06:35:05.332Z,999.42
2018-04-13T06:36:05.341Z,999.46
2018-04-13T06:37:05.327Z,999.46
2018-04-13T06:38:05.338Z,999.47
2018-04-13T06:39:05.344Z,999.51
2018-04-13T06:40:05.339Z,999.63
2018-04-13T06:41:05.359Z,999.74
2018-04-13T06:42:05.350Z,999.86
2018-04-13T06:43:05.352Z,999.98
2018-04-13T06:44:05.356Z,1000.03
2018-04-13T06:45:05.364Z,1000.05
2018-04-13T06:46:05.374Z,999.99
2018-04-13T06:47:05.369Z,999.89
2018-04-13T06:48:05.377Z,999.84
2018-04-13T06:49:05.378Z,999.74
2018-04-13T06:50:05.384Z,999.58
2018-04-13T06:51:05.392Z,999.55
2018-04-13T06:52:05.397Z,999.50
2018-04-13T06:53:05.396Z,999.50
2018-04-13T06:54:05.404Z,999.50
2018-04-13T06:55:05.410Z,999.52
2018-04-13T06:56:05.419Z,999.49
2018-04-13T06:57:05.416Z,999.48
2018-04-13T06:58:05.473Z,999.49
2018-04-13T06:59:05.419Z,999.43
2018-04-13T07:00:05.428Z,999.42
2018-04-13T07:01:05.436Z,999.47
2018-04-13T07:02:05.441Z,999.45
2018-04-13T07:03:05.442Z,999.41
2018-04-13T07:04:05.443Z,999.40
2018-04-13T07:05:05.452Z,999.44
2018-04-13T07:06:05.456Z,999.50
2018-04-13T07:07:05.462Z,999.47
2018-04-13T07:08:05.463Z,999.50
2018-04-13T07:09:05.465Z,999.51
2018-04-13T07:10:05.485Z,999.59
2018-04-13T07:11:05.476Z,999.60
2018-04-13T07:12:05.484Z,999.68
2018-04-13T07:13:05.491Z,999.68
2018-04-13T07:14:05.488Z,999.73
2018-04-13T07:15:05.505Z,999.74
2018-04-13T07:16:05.505Z,999.74
2018-04-13T07:17:05.524Z,999.81
2018-04-13T07:18:05.512Z,999.84
2018-04-13T07:19:05.521Z,999.88
2018-04-13T07:20:05.525Z,999.88
2018-04-13T07:21:05.532Z,999.90
2018-04-13T07:22:05.534Z,999.89
2018-04-13T07:23:05.547Z,999.93
2018-04-13T07:24:05.538Z,999.88
2018-04-13T07:25:05.556Z,999.87
2018-04-13T07:26:05.555Z,999.85
2018-04-13T07:27:06.838Z,999.94
2018-04-13T07:28:05.569Z,999.93
2018-04-13T07:29:05.575Z,999.81
2018-04-13T07:30:05.741Z,999.83
2018-04-13T07:31:05.584Z,999.82
2018-04-13T07:32:06.091Z,999.80
2018-04-13T07:33:05.603Z,999.79
2018-04-13T07:34:06.179Z,999.76
2018-04-13T07:35:05.610Z,999.74
2018-04-13T07:36:05.615Z,999.62
2018-04-13T07:37:05.626Z,999.60
2018-04-13T07:38:05.633Z,999.59
2018-04-13T07:39:05.638Z,999.66
2018-04-13T07:40:05.651Z,999.59
2018-04-13T07:41:05.652Z,999.60
2018-04-13T07:42:05.662Z,999.68
2018-04-13T07:43:05.665Z,999.68
2018-04-13T07:44:05.676Z,999.69
2018-04-13T07:45:05.732Z,999.66
2018-04-13T07:46:05.695Z,999.66
2018-04-13T07:47:05.698Z,999.66
2018-04-13T07:48:05.708Z,999.64
2018-04-13T07:49:05.717Z,999.64
2018-04-13T07:50:05.733Z,999.62
2018-04-13T07:51:05.725Z,999.59
2018-04-13T07:52:05.755Z,999.50
2018-04-13T07:53:05.989Z,999.53
2018-04-13T07:54:05.760Z,999.53
2018-04-13T07:55:05.846Z,999.50
2018-04-13T07:56:05.767Z,999.54
2018-04-13T07:57:05.793Z,999.52
2018-04-13T07:58:05.784Z,999.53
2018-04-13T07:59:05.803Z,999.51
2018-04-13T08:00:05.809Z,999.54
2018-04-13T08:01:06.094Z,999.59
2018-04-13T08:02:05.828Z,999.60
2018-04-13T08:03:05.821Z,999.60
2018-04-13T08:04:05.834Z,999.60
2018-04-13T08:05:05.841Z,999.62
2018-04-13T08:06:05.844Z,999.62
2018-04-13T08:07:05.853Z,999.67
2018-04-13T08:08:05.859Z,999.68
2018-04-13T08:09:05.869Z,999.67
2018-04-13T08:10:06.256Z,999.71
2018-04-13T08:11:05.885Z,999.74
2018-04-13T08:12:05.896Z,999.78
2018-04-13T08:13:05.911Z,999.77
2018-04-13T08:14:05.970Z,999.77
2018-04-13T08:15:06.281Z,999.81
2018-04-13T08:16:05.917Z,999.87
2018-04-13T08:17:05.928Z,999.88
2018-04-13T08:18:05.925Z,999.87
2018-04-13T08:19:05.944Z,999.92
2018-04-13T08:20:05.941Z,999.89
2018-04-13T08:21:05.952Z,999.96
2018-04-13T08:22:05.964Z,999.91
2018-04-13T08:23:05.967Z,999.93
2018-04-13T08:24:05.980Z,999.97
2018-04-13T08:25:05.983Z,999.96
2018-04-13T08:26:05.991Z,999.96
2018-04-13T08:27:05.995Z,999.98
2018-04-13T08:28:05.998Z,999.99
2018-04-13T08:29:06.012Z,1000.05
2018-04-13T08:30:06.015Z,1000.02
2018-04-13T08:31:06.019Z,1000.08
2018-04-13T08:32:06.027Z,1000.04
2018-04-13T08:33:06.034Z,1000.04
2018-04-13T08:34:06.042Z,1000.08
2018-04-13T08:35:06.067Z,1000.08
2018-04-13T08:36:06.073Z,1000.05
2018-04-13T08:37:06.066Z,1000.08
2018-04-13T08:38:06.077Z,1000.09
2018-04-13T08:39:06.088Z,1000.06
2018-04-13T08:40:06.073Z,1000.05
2018-04-13T08:41:06.094Z,1000.05
2018-04-13T08:42:06.089Z,1000.06
2018-04-13T08:43:06.105Z,1000.07
2018-04-13T08:44:06.102Z,1000.09
2018-04-13T08:45:06.118Z,1000.05
2018-04-13T08:46:06.120Z,1000.13
2018-04-13T08:47:06.135Z,1000.07
2018-04-13T08:48:06.128Z,1000.12
2018-04-13T08:49:06.258Z,1000.12
2018-04-13T08:50:06.155Z,1000.12
2018-04-13T08:51:06.155Z,1000.13
2018-04-13T08:52:06.166Z,1000.10
2018-04-13T08:53:06.178Z,1000.08
2018-04-13T08:54:06.239Z,1000.08
2018-04-13T08:55:06.175Z,1000.12
2018-04-13T08:56:06.242Z,1000.11
2018-04-13T08:57:06.319Z,1000.11
2018-04-13T08:58:06.207Z,1000.13
2018-04-13T08:59:06.226Z,1000.14
2018-04-13T09:00:06.209Z,1000.14
2018-04-13T09:01:06.234Z,1000.15
2018-04-13T09:02:06.232Z,1000.15
2018-04-13T09:03:06.230Z,1000.16
2018-04-13T09:04:12.543Z,1000.14
2018-04-13T09:05:06.266Z,1000.16
2018-04-13T09:06:06.251Z,1000.18
2018-04-13T09:07:06.267Z,1000.22
2018-04-13T09:08:06.262Z,1000.24
2018-04-13T09:09:06.276Z,1000.24
2018-04-13T09:10:06.280Z,1000.27
2018-04-13T09:11:06.281Z,1000.29
2018-04-13T09:12:06.293Z,1000.34
2018-04-13T09:13:06.312Z,1000.38
2018-04-13T09:14:06.301Z,1000.42
2018-04-13T09:15:06.309Z,1000.50
2018-04-13T09:16:06.314Z,1000.52
2018-04-13T09:17:06.323Z,1000.55
2018-04-13T09:18:06.333Z,1000.58
2018-04-13T09:19:06.330Z,1000.62
2018-04-13T09:20:06.338Z,1000.64
2018-04-13T09:21:06.352Z,1000.61
2018-04-13T09:22:06.354Z,1000.67
2018-04-13T09:23:06.369Z,1000.70
2018-04-13T09:24:06.387Z,1000.75
2018-04-13T09:25:06.375Z,1000.82
2018-04-13T09:26:07.265Z,1000.85
2018-04-13T09:27:06.392Z,1000.82
2018-04-13T09:28:06.397Z,1000.82
2018-04-13T09:29:06.409Z,1000.78
2018-04-13T09:30:06.410Z,1000.74
2018-04-13T09:31:06.417Z,1000.76
2018-04-13T09:32:06.430Z,1000.69
2018-04-13T09:33:06.459Z,1000.68
2018-04-13T09:34:06.443Z,1000.65
2018-04-13T09:35:06.443Z,1000.61
2018-04-13T09:36:06.451Z,1000.58
2018-04-13T09:37:06.467Z,1000.58
2018-04-13T09:38:06.472Z,1000.60
2018-04-13T09:39:06.480Z,1000.56
2018-04-13T09:40:06.480Z,1000.60
2018-04-13T09:41:06.496Z,1000.59
2018-04-13T09:42:06.494Z,1000.57
2018-04-13T09:43:06.510Z,1000.64
2018-04-13T09:44:06.515Z,1000.63
2018-04-13T09:45:06.526Z,1000.69
2018-04-13T09:46:06.571Z,1000.69
2018-04-13T09:47:06.548Z,1000.67
2018-04-13T09:48:06.567Z,1000.79
2018-04-13T09:49:06.566Z,1000.87
2018-04-13T09:50:06.568Z,1000.98
2018-04-13T09:51:06.573Z,1000.96
2018-04-13T09:52:06.584Z,1000.99
2018-04-13T09:53:06.595Z,1000.84
2018-04-13T09:54:06.599Z,1000.75
2018-04-13T09:55:06.611Z,1000.62
2018-04-13T09:56:06.614Z,1000.63
2018-04-13T09:57:06.625Z,1000.60
2018-04-13T09:58:06.660Z,1000.60
2018-04-13T09:59:06.641Z,1000.66
2018-04-13T10:00:06.658Z,1000.68
2018-04-13T10:01:06.655Z,1000.63
2018-04-13T10:02:06.674Z,1000.58
2018-04-13T10:03:06.680Z,1000.64
2018-04-13T10:04:06.693Z,1000.60
2018-04-13T10:05:06.700Z,1000.57
2018-04-13T10:06:06.701Z,1000.57
2018-04-13T10:07:06.718Z,1000.61
2018-04-13T10:08:06.734Z,1000.64
2018-04-13T10:09:06.729Z,1000.63
2018-04-13T10:10:06.741Z,1000.59
2018-04-13T10:11:06.754Z,1000.64
2018-04-13T10:12:06.756Z,1000.59
2018-04-13T10:13:06.775Z,1000.57
2018-04-13T10:14:06.782Z,1000.53
2018-04-13T10:15:06.788Z,1000.52
2018-04-13T10:16:06.804Z,1000.54
2018-04-13T10:17:06.812Z,1000.51
2018-04-13T10:18:06.819Z,1000.53
2018-04-13T10:19:06.830Z,1000.54
2018-04-13T10:20:07.015Z,1000.53
2018-04-13T10:21:06.844Z,1000.53
2018-04-13T10:22:06.850Z,1000.55
2018-04-13T10:23:06.862Z,1000.59
2018-04-13T10:24:07.438Z,1000.58
2018-04-13T10:25:06.888Z,1000.58
2018-04-13T10:26:06.883Z,1000.63
2018-04-13T10:27:06.900Z,1000.66
2018-04-13T10:28:06.913Z,1000.66
2018-04-13T10:29:06.909Z,1000.64
2018-04-13T10:30:06.947Z,1000.61
2018-04-13T10:31:06.926Z,1000.64
2018-04-13T10:32:06.943Z,1000.60
2018-04-13T10:33:06.955Z,1000.66
2018-04-13T10:34:06.960Z,1000.65
2018-04-13T10:35:06.974Z,1000.66
2018-04-13T10:36:06.974Z,1000.67
2018-04-13T10:37:07.018Z,1000.69
2018-04-13T10:38:06.987Z,1000.65
2018-04-13T10:39:07.040Z,1000.67
2018-04-13T10:40:07.115Z,1000.72
2018-04-13T10:41:07.037Z,1000.73
2018-04-13T10:42:07.125Z,1000.73
2018-04-13T10:43:07.055Z,1000.71
2018-04-13T10:44:07.045Z,1000.70
2018-04-13T10:45:07.088Z,1000.74
2018-04-13T10:46:07.140Z,1000.73
2018-04-13T10:47:07.117Z,1000.74
2018-04-13T10:48:07.095Z,1000.70
2018-04-13T10:49:07.183Z,1000.78
2018-04-13T10:50:07.102Z,1000.79
2018-04-13T10:51:07.403Z,1000.79
2018-04-13T10:52:07.120Z,1000.84
2018-04-13T10:53:07.125Z,1000.83
2018-04-13T10:54:07.131Z,1000.81
2018-04-13T10:55:07.150Z,1000.86
2018-04-13T10:56:07.148Z,1000.84
2018-04-13T10:57:07.185Z,1000.85
2018-04-13T10:58:07.166Z,1000.88
2018-04-13T10:59:07.182Z,1000.89
2018-04-13T11:00:07.175Z,1000.92
2018-04-13T11:01:07.218Z,1000.88
2018-04-13T11:02:07.199Z,1000.86
2018-04-13T11:03:07.216Z,1000.87
2018-04-13T11:04:07.221Z,1000.92
2018-04-13T11:05:07.226Z,1000.86
2018-04-13T11:06:07.224Z,1000.89
2018-04-13T11:07:07.281Z,1000.90
2018-04-13T11:08:07.242Z,1000.90
2018-04-13T11:09:07.267Z,1000.93
2018-04-13T11:10:07.264Z,1000.92
2018-04-13T11:11:07.274Z,1000.93
2018-04-13T11:12:07.285Z,1000.91
2018-04-13T11:13:07.288Z,1000.93
2018-04-13T11:14:07.294Z,1000.96
2018-04-13T11:15:07.298Z,1000.97
2018-04-13T11:16:07.306Z,1000.97
2018-04-13T11:17:07.320Z,1000.96
2018-04-13T11:18:07.356Z,1001.01
2018-04-13T11:19:07.344Z,1000.98
2018-04-13T11:20:07.339Z,1000.99
2018-04-13T11:21:07.349Z,1000.99
2018-04-13T11:22:07.362Z,1000.95
2018-04-13T11:23:07.357Z,1000.97
2018-04-13T11:24:07.379Z,1001.02
2018-04-13T11:25:07.388Z,1001.04
2018-04-13T11:26:07.391Z,1001.05
2018-04-13T11:27:07.402Z,1001.09
2018-04-13T11:28:07.404Z,1001.06
2018-04-13T11:29:07.414Z,1001.09
2018-04-13T11:30:07.422Z,1001.09
2018-04-13T11:31:07.423Z,1001.07
2018-04-13T11:32:07.432Z,1001.08
2018-04-13T11:33:07.443Z,1001.05
2018-04-13T11:34:07.457Z,1001.12
2018-04-13T11:35:07.662Z,1001.14
2018-04-13T11:36:07.466Z,1001.10
2018-04-13T11:37:07.475Z,1001.08
2018-04-13T11:38:07.476Z,1001.14
2018-04-13T11:39:07.484Z,1001.07
2018-04-13T11:40:07.493Z,1001.03
2018-04-13T11:41:07.504Z,1000.99
2018-04-13T11:42:07.508Z,1001.03
2018-04-13T11:43:07.519Z,1001.02
2018-04-13T11:44:07.523Z,1001.03
2018-04-13T11:45:07.538Z,1000.97
2018-04-13T11:46:07.542Z,1000.98
2018-04-13T11:47:07.547Z,1001.03
2018-04-13T11:48:07.557Z,1001.07
2018-04-13T11:49:07.566Z,1001.03
2018-04-13T11:50:07.595Z,1001.05
2018-04-13T11:51:07.575Z,1001.06
2018-04-13T11:52:07.587Z,1001.10
2018-04-13T11:53:07.597Z,1001.09
2018-04-13T11:54:07.601Z,1001.10
2018-04-13T11:55:07.611Z,1001.15
2018-04-13T11:56:07.620Z,1001.17
2018-04-13T11:57:07.625Z,1001.16
2018-04-13T11:58:07.636Z,1001.16
2018-04-13T11:59:07.644Z,1001.26
2018-04-13T12:00:07.646Z,1001.28
2018-04-13T12:01:07.660Z,1001.35
2018-04-13T12:02:07.664Z,1001.38
2018-04-13T12:03:07.670Z,1001.41
2018-04-13T12:04:07.673Z,1001.46
2018-04-13T12:05:07.689Z,1001.48
2018-04-13T12:06:07.687Z,1001.48
2018-04-13T12:07:07.703Z,1001.44
2018-04-13T12:08:07.701Z,1001.45
2018-04-13T12:09:07.711Z,1001.45
2018-04-13T12:10:07.727Z,1001.43
2018-04-13T12:11:07.724Z,1001.41
2018-04-13T12:12:07.738Z,1001.37
2018-04-13T12:13:07.735Z,1001.38
2018-04-13T12:14:07.745Z,1001.38
2018-04-13T12:15:07.749Z,1001.36
2018-04-13T12:16:07.760Z,1001.40
2018-04-13T12:17:07.773Z,1001.41
2018-04-13T12:18:07.775Z,1001.40
2018-04-13T12:19:07.781Z,1001.46
2018-04-13T12:20:07.786Z,1001.45
2018-04-13T12:21:07.796Z,1001.47